Terminal Aerodrome Forecast
Issued by NWS Mt. Holly, NJ

Home | Current Version | Previous Version | Text Only | Print | Product List | Glossary On
Versions: 1 2 3 4 5 6 7 8 9 10 11 12 13 14 15 16 17 18 19 20 21
000
FTUS41 KPHI 020627 AAA
TAFRDG
TAF AMD
KRDG 020627Z 0206/0306 VRB02KT 3SM BR OVC005
      TEMPO 0206/0209 2SM -FZRADZ
     FM020900 31006KT 5SM BR OVC020
     FM021100 31008KT P6SM OVC050
     FM021400 31015G25KT P6SM SCT050 SCT250
     FM022300 31008KT P6SM SCT250=

USA.gov is the U.S. government's official web portal to all federal, state and local government web resources and services.